Leon, Spain
Current Conditions -  °F | °C
As of 8:00 PM on Monday 20 Oct 2014 (Local Time) from LELN Reporting Station
Few Clouds Few Clouds  
Wind Chill: 63°   Ceiling: Unl
Heat Index: 63°   Visibility: 6mi
Dew Point: 52°   Wind: 3mph
Humidity: 68%   Direction: 250°WSW
Pressure: 30.24"   Gusts: NA
Location:  42.6°N, 5.57°W
Report Text: LELN 201800Z 25003KT 9999 FEW030 17/11 Q1024
Loading
Personal Weather Stations






























Interactive Weather Map
Tropical Storm Tracking
New forecast layout! Learn more

10-Day Weather Forecast

Advertisements
Track Severe Weather on mobile